sensor_id;sensor_type;location;lat;lon;timestamp;P1;durP1;ratioP1;P2;durP2;ratioP2
817;SDS011;391;51.052;6.954;2023-06-01T00:00:28;2.53;;;1.90;;
817;SDS011;391;51.052;6.954;2023-06-01T00:02:32;4.10;;;2.00;;
817;SDS011;391;51.052;6.954;2023-06-01T00:04:36;4.03;;;2.00;;
817;SDS011;391;51.052;6.954;2023-06-01T00:06:42;3.33;;;2.07;;
817;SDS011;391;51.052;6.954;2023-06-01T00:08:46;5.63;;;2.40;;
817;SDS011;391;51.052;6.954;2023-06-01T00:10:49;2.70;;;2.30;;
817;SDS011;391;51.052;6.954;2023-06-01T00:12:53;2.40;;;2.20;;
817;SDS011;391;51.052;6.954;2023-06-01T00:14:56;3.17;;;1.80;;
817;SDS011;391;51.052;6.954;2023-06-01T00:17:00;3.30;;;2.20;;
817;SDS011;391;51.052;6.954;2023-06-01T00:19:09;2.80;;;1.93;;
817;SDS011;391;51.052;6.954;2023-06-01T00:21:13;4.00;;;3.10;;
817;SDS011;391;51.052;6.954;2023-06-01T00:23:16;6.93;;;2.70;;
817;SDS011;391;51.052;6.954;2023-06-01T00:25:22;2.20;;;2.00;;
817;SDS011;391;51.052;6.954;2023-06-01T00:27:25;3.20;;;2.17;;
817;SDS011;391;51.052;6.954;2023-06-01T00:29:29;2.30;;;1.80;;
817;SDS011;391;51.052;6.954;2023-06-01T00:31:32;3.33;;;1.97;;
817;SDS011;391;51.052;6.954;2023-06-01T00:33:36;3.00;;;2.43;;
817;SDS011;391;51.052;6.954;2023-06-01T00:35:41;4.33;;;1.67;;
817;SDS011;391;51.052;6.954;2023-06-01T00:37:44;5.33;;;2.47;;
817;SDS011;391;51.052;6.954;2023-06-01T00:39:48;2.60;;;1.60;;
817;SDS011;391;51.052;6.954;2023-06-01T00:41:51;2.40;;;2.20;;
817;SDS011;391;51.052;6.954;2023-06-01T00:43:58;2.90;;;2.37;;
817;SDS011;391;51.052;6.954;2023-06-01T00:46:02;3.00;;;1.83;;
817;SDS011;391;51.052;6.954;2023-06-01T00:48:06;2.87;;;2.23;;
817;SDS011;391;51.052;6.954;2023-06-01T00:50:10;2.70;;;1.87;;
817;SDS011;391;51.052;6.954;2023-06-01T00:52:16;3.70;;;1.90;;
817;SDS011;391;51.052;6.954;2023-06-01T00:54:20;3.80;;;1.80;;
817;SDS011;391;51.052;6.954;2023-06-01T00:56:23;5.07;;;1.80;;
817;SDS011;391;51.052;6.954;2023-06-01T00:58:28;1.70;;;1.60;;
817;SDS011;391;51.052;6.954;2023-06-01T01:00:33;1.53;;;1.40;;
817;SDS011;391;51.052;6.954;2023-06-01T01:02:36;2.67;;;1.70;;
817;SDS011;391;51.052;6.954;2023-06-01T01:04:41;2.10;;;1.70;;
817;SDS011;391;51.052;6.954;2023-06-01T01:06:45;3.60;;;2.30;;
817;SDS011;391;51.052;6.954;2023-06-01T01:09:03;2.67;;;1.80;;
817;SDS011;391;51.052;6.954;2023-06-01T01:11:21;2.07;;;1.50;;
817;SDS011;391;51.052;6.954;2023-06-01T01:13:30;3.57;;;1.97;;
817;SDS011;391;51.052;6.954;2023-06-01T01:15:43;2.50;;;2.30;;
817;SDS011;391;51.052;6.954;2023-06-01T01:17:59;2.43;;;2.23;;
817;SDS011;391;51.052;6.954;2023-06-01T01:20:06;4.03;;;2.47;;
817;SDS011;391;51.052;6.954;2023-06-01T01:22:18;2.73;;;2.07;;
817;SDS011;391;51.052;6.954;2023-06-01T01:24:33;3.03;;;2.10;;
817;SDS011;391;51.052;6.954;2023-06-01T01:29:15;4.83;;;2.23;;
817;SDS011;391;51.052;6.954;2023-06-01T01:31:22;2.73;;;2.40;;
817;SDS011;391;51.052;6.954;2023-06-01T01:33:27;2.50;;;2.30;;
817;SDS011;391;51.052;6.954;2023-06-01T01:35:32;3.23;;;2.93;;
817;SDS011;391;51.052;6.954;2023-06-01T01:37:37;1.90;;;1.73;;
817;SDS011;391;51.052;6.954;2023-06-01T01:39:53;2.57;;;2.37;;
817;SDS011;391;51.052;6.954;2023-06-01T01:41:56;2.50;;;2.27;;
817;SDS011;391;51.052;6.954;2023-06-01T01:44:01;1.90;;;1.60;;
817;SDS011;391;51.052;6.954;2023-06-01T01:46:10;2.00;;;1.70;;
817;SDS011;391;51.052;6.954;2023-06-01T01:48:26;2.20;;;2.00;;
817;SDS011;391;51.052;6.954;2023-06-01T01:50:36;2.33;;;1.80;;
817;SDS011;391;51.052;6.954;2023-06-01T01:52:43;2.70;;;2.40;;
817;SDS011;391;51.052;6.954;2023-06-01T01:54:48;3.90;;;2.30;;
817;SDS011;391;51.052;6.954;2023-06-01T01:56:53;3.30;;;3.00;;
817;SDS011;391;51.052;6.954;2023-06-01T01:58:58;3.10;;;2.20;;
817;SDS011;391;51.052;6.954;2023-06-01T02:01:03;2.73;;;2.40;;
817;SDS011;391;51.052;6.954;2023-06-01T02:03:13;2.40;;;2.20;;
817;SDS011;391;51.052;6.954;2023-06-01T02:05:17;4.20;;;2.70;;
817;SDS011;391;51.052;6.954;2023-06-01T02:07:22;2.53;;;2.33;;
817;SDS011;391;51.052;6.954;2023-06-01T02:09:25;4.00;;;2.67;;
817;SDS011;391;51.052;6.954;2023-06-01T02:11:29;3.03;;;2.30;;
817;SDS011;391;51.052;6.954;2023-06-01T02:13:32;2.40;;;2.20;;
817;SDS011;391;51.052;6.954;2023-06-01T02:15:36;2.03;;;1.83;;
817;SDS011;391;51.052;6.954;2023-06-01T02:17:39;3.07;;;2.60;;
817;SDS011;391;51.052;6.954;2023-06-01T02:19:47;3.27;;;2.20;;
817;SDS011;391;51.052;6.954;2023-06-01T02:21:50;2.73;;;2.47;;
817;SDS011;391;51.052;6.954;2023-06-01T02:23:54;3.90;;;2.87;;
817;SDS011;391;51.052;6.954;2023-06-01T02:25:57;4.63;;;4.20;;
817;SDS011;391;51.052;6.954;2023-06-01T02:28:01;5.03;;;4.20;;
817;SDS011;391;51.052;6.954;2023-06-01T02:30:05;4.67;;;4.07;;
817;SDS011;391;51.052;6.954;2023-06-01T02:32:10;6.30;;;4.13;;
817;SDS011;391;51.052;6.954;2023-06-01T02:34:14;5.90;;;4.40;;
817;SDS011;391;51.052;6.954;2023-06-01T02:36:19;3.60;;;3.03;;
817;SDS011;391;51.052;6.954;2023-06-01T02:38:23;3.70;;;3.03;;
817;SDS011;391;51.052;6.954;2023-06-01T02:40:27;2.93;;;2.50;;
817;SDS011;391;51.052;6.954;2023-06-01T02:42:30;4.20;;;2.60;;
817;SDS011;391;51.052;6.954;2023-06-01T02:44:33;6.33;;;2.73;;
817;SDS011;391;51.052;6.954;2023-06-01T02:46:37;2.60;;;2.40;;
817;SDS011;391;51.052;6.954;2023-06-01T02:48:40;2.60;;;2.10;;
817;SDS011;391;51.052;6.954;2023-06-01T02:50:44;3.07;;;2.30;;
817;SDS011;391;51.052;6.954;2023-06-01T02:52:49;4.20;;;2.67;;
817;SDS011;391;51.052;6.954;2023-06-01T02:54:52;3.40;;;2.57;;
817;SDS011;391;51.052;6.954;2023-06-01T02:57:17;3.63;;;2.80;;
817;SDS011;391;51.052;6.954;2023-06-01T02:59:26;3.10;;;2.90;;
817;SDS011;391;51.052;6.954;2023-06-01T03:01:34;4.60;;;3.00;;
817;SDS011;391;51.052;6.954;2023-06-01T03:03:40;3.80;;;3.13;;
817;SDS011;391;51.052;6.954;2023-06-01T03:05:44;3.13;;;2.73;;
817;SDS011;391;51.052;6.954;2023-06-01T03:08:15;5.33;;;4.00;;
817;SDS011;391;51.052;6.954;2023-06-01T03:10:19;5.67;;;3.77;;
817;SDS011;391;51.052;6.954;2023-06-01T03:12:38;5.93;;;3.33;;
817;SDS011;391;51.052;6.954;2023-06-01T03:14:42;3.30;;;2.87;;
817;SDS011;391;51.052;6.954;2023-06-01T03:16:45;4.33;;;2.77;;
817;SDS011;391;51.052;6.954;2023-06-01T03:18:53;4.50;;;3.17;;
817;SDS011;391;51.052;6.954;2023-06-01T03:20:57;4.30;;;3.10;;
817;SDS011;391;51.052;6.954;2023-06-01T03:23:01;4.20;;;3.23;;
817;SDS011;391;51.052;6.954;2023-06-01T03:25:06;4.60;;;4.00;;
817;SDS011;391;51.052;6.954;2023-06-01T03:27:10;5.90;;;4.57;;
817;SDS011;391;51.052;6.954;2023-06-01T03:29:14;6.87;;;4.40;;
817;SDS011;391;51.052;6.954;2023-06-01T03:31:18;5.50;;;4.50;;
817;SDS011;391;51.052;6.954;2023-06-01T03:33:22;5.57;;;4.20;;
817;SDS011;391;51.052;6.954;2023-06-01T03:35:26;4.87;;;4.23;;
817;SDS011;391;51.052;6.954;2023-06-01T03:37:30;6.87;;;4.30;;
817;SDS011;391;51.052;6.954;2023-06-01T03:39:33;6.60;;;4.10;;
817;SDS011;391;51.052;6.954;2023-06-01T03:41:40;10.33;;;5.67;;
817;SDS011;391;51.052;6.954;2023-06-01T03:43:44;6.10;;;5.10;;
817;SDS011;391;51.052;6.954;2023-06-01T03:45:47;5.13;;;4.30;;
817;SDS011;391;51.052;6.954;2023-06-01T03:47:51;8.43;;;4.80;;
817;SDS011;391;51.052;6.954;2023-06-01T03:49:55;6.87;;;6.13;;
817;SDS011;391;51.052;6.954;2023-06-01T03:51:59;6.70;;;4.47;;
817;SDS011;391;51.052;6.954;2023-06-01T03:54:03;7.77;;;4.50;;
817;SDS011;391;51.052;6.954;2023-06-01T03:56:06;10.33;;;5.50;;
817;SDS011;391;51.052;6.954;2023-06-01T03:58:14;11.33;;;6.27;;
817;SDS011;391;51.052;6.954;2023-06-01T04:00:21;10.13;;;6.93;;
817;SDS011;391;51.052;6.954;2023-06-01T04:02:25;7.73;;;5.10;;
817;SDS011;391;51.052;6.954;2023-06-01T04:04:30;14.53;;;6.47;;
817;SDS011;391;51.052;6.954;2023-06-01T04:06:34;7.80;;;6.40;;
817;SDS011;391;51.052;6.954;2023-06-01T04:08:38;15.30;;;8.10;;
817;SDS011;391;51.052;6.954;2023-06-01T04:10:49;8.57;;;6.60;;
817;SDS011;391;51.052;6.954;2023-06-01T04:12:53;9.17;;;7.60;;
817;SDS011;391;51.052;6.954;2023-06-01T04:15:02;8.40;;;6.13;;
817;SDS011;391;51.052;6.954;2023-06-01T04:17:11;9.60;;;6.40;;
817;SDS011;391;51.052;6.954;2023-06-01T04:19:14;7.50;;;6.70;;
817;SDS011;391;51.052;6.954;2023-06-01T04:21:20;8.60;;;7.03;;
817;SDS011;391;51.052;6.954;2023-06-01T04:23:25;8.27;;;6.47;;
817;SDS011;391;51.052;6.954;2023-06-01T04:25:28;10.80;;;7.17;;
817;SDS011;391;51.052;6.954;2023-06-01T04:27:34;9.37;;;6.97;;
817;SDS011;391;51.052;6.954;2023-06-01T04:29:39;9.13;;;7.20;;
817;SDS011;391;51.052;6.954;2023-06-01T04:31:47;8.40;;;7.20;;
817;SDS011;391;51.052;6.954;2023-06-01T04:33:52;9.57;;;8.57;;
817;SDS011;391;51.052;6.954;2023-06-01T04:35:59;14.83;;;9.90;;
817;SDS011;391;51.052;6.954;2023-06-01T04:38:05;9.77;;;8.10;;
817;SDS011;391;51.052;6.954;2023-06-01T04:40:09;14.20;;;9.90;;
817;SDS011;391;51.052;6.954;2023-06-01T04:42:15;13.53;;;9.83;;
817;SDS011;391;51.052;6.954;2023-06-01T04:44:19;16.30;;;10.87;;
817;SDS011;391;51.052;6.954;2023-06-01T04:46:23;12.80;;;9.33;;
817;SDS011;391;51.052;6.954;2023-06-01T04:48:35;13.20;;;9.83;;
817;SDS011;391;51.052;6.954;2023-06-01T04:50:40;9.97;;;8.87;;
817;SDS011;391;51.052;6.954;2023-06-01T04:52:44;11.83;;;9.40;;
817;SDS011;391;51.052;6.954;2023-06-01T04:54:50;15.90;;;11.00;;
817;SDS011;391;51.052;6.954;2023-06-01T04:56:53;13.50;;;10.70;;
817;SDS011;391;51.052;6.954;2023-06-01T04:58:57;14.57;;;11.37;;
817;SDS011;391;51.052;6.954;2023-06-01T05:01:03;16.47;;;12.33;;
817;SDS011;391;51.052;6.954;2023-06-01T05:03:08;15.93;;;12.30;;
817;SDS011;391;51.052;6.954;2023-06-01T05:05:13;21.93;;;14.20;;
817;SDS011;391;51.052;6.954;2023-06-01T05:07:18;17.20;;;12.33;;
817;SDS011;391;51.052;6.954;2023-06-01T05:09:23;17.47;;;13.03;;
817;SDS011;391;51.052;6.954;2023-06-01T05:11:27;18.07;;;14.10;;
817;SDS011;391;51.052;6.954;2023-06-01T05:13:33;21.00;;;16.23;;
817;SDS011;391;51.052;6.954;2023-06-01T05:15:37;18.97;;;14.50;;
817;SDS011;391;51.052;6.954;2023-06-01T05:17:40;21.67;;;15.73;;
817;SDS011;391;51.052;6.954;2023-06-01T05:19:47;17.50;;;13.97;;
817;SDS011;391;51.052;6.954;2023-06-01T05:21:52;18.53;;;15.57;;
817;SDS011;391;51.052;6.954;2023-06-01T05:23:56;21.13;;;16.47;;
817;SDS011;391;51.052;6.954;2023-06-01T05:26:00;21.53;;;16.23;;
817;SDS011;391;51.052;6.954;2023-06-01T05:28:08;21.60;;;17.60;;
817;SDS011;391;51.052;6.954;2023-06-01T05:30:15;22.50;;;17.20;;
817;SDS011;391;51.052;6.954;2023-06-01T05:32:21;23.90;;;18.30;;
817;SDS011;391;51.052;6.954;2023-06-01T05:34:26;24.30;;;16.80;;
817;SDS011;391;51.052;6.954;2023-06-01T05:36:29;25.20;;;19.10;;
817;SDS011;391;51.052;6.954;2023-06-01T05:38:35;21.40;;;17.07;;
817;SDS011;391;51.052;6.954;2023-06-01T05:40:42;26.13;;;17.33;;
817;SDS011;391;51.052;6.954;2023-06-01T05:42:46;22.37;;;17.30;;
817;SDS011;391;51.052;6.954;2023-06-01T05:44:49;24.27;;;17.30;;
817;SDS011;391;51.052;6.954;2023-06-01T05:47:02;23.40;;;19.00;;
817;SDS011;391;51.052;6.954;2023-06-01T05:49:05;24.33;;;17.50;;
817;SDS011;391;51.052;6.954;2023-06-01T05:51:09;25.40;;;17.83;;
817;SDS011;391;51.052;6.954;2023-06-01T05:53:13;26.53;;;17.70;;
817;SDS011;391;51.052;6.954;2023-06-01T05:55:18;24.03;;;18.07;;
817;SDS011;391;51.052;6.954;2023-06-01T05:57:22;24.77;;;17.40;;
817;SDS011;391;51.052;6.954;2023-06-01T05:59:25;26.20;;;18.50;;
817;SDS011;391;51.052;6.954;2023-06-01T06:01:29;20.10;;;16.40;;
817;SDS011;391;51.052;6.954;2023-06-01T06:03:32;24.07;;;17.93;;
817;SDS011;391;51.052;6.954;2023-06-01T06:05:36;27.07;;;19.50;;
817;SDS011;391;51.052;6.954;2023-06-01T06:07:39;23.40;;;18.00;;
817;SDS011;391;51.052;6.954;2023-06-01T06:09:43;24.20;;;19.00;;
817;SDS011;391;51.052;6.954;2023-06-01T06:11:48;23.00;;;18.33;;
817;SDS011;391;51.052;6.954;2023-06-01T06:13:51;25.90;;;19.57;;
817;SDS011;391;51.052;6.954;2023-06-01T06:15:55;24.37;;;17.30;;
817;SDS011;391;51.052;6.954;2023-06-01T06:17:58;25.63;;;18.60;;
817;SDS011;391;51.052;6.954;2023-06-01T06:20:02;24.70;;;17.33;;
817;SDS011;391;51.052;6.954;2023-06-01T06:22:09;24.97;;;17.40;;
817;SDS011;391;51.052;6.954;2023-06-01T06:24:13;24.37;;;18.00;;
817;SDS011;391;51.052;6.954;2023-06-01T06:26:17;27.53;;;18.97;;
817;SDS011;391;51.052;6.954;2023-06-01T06:28:22;22.30;;;16.57;;
817;SDS011;391;51.052;6.954;2023-06-01T06:30:25;24.90;;;17.70;;
817;SDS011;391;51.052;6.954;2023-06-01T06:32:29;21.70;;;17.40;;
817;SDS011;391;51.052;6.954;2023-06-01T06:34:32;23.77;;;17.73;;
817;SDS011;391;51.052;6.954;2023-06-01T06:36:37;21.37;;;17.00;;
817;SDS011;391;51.052;6.954;2023-06-01T06:38:41;19.87;;;15.90;;
817;SDS011;391;51.052;6.954;2023-06-01T06:40:44;27.57;;;18.60;;
817;SDS011;391;51.052;6.954;2023-06-01T06:42:47;27.13;;;17.70;;
817;SDS011;391;51.052;6.954;2023-06-01T06:44:53;24.63;;;19.03;;
817;SDS011;391;51.052;6.954;2023-06-01T06:46:59;22.00;;;17.73;;
817;SDS011;391;51.052;6.954;2023-06-01T06:49:04;21.57;;;16.73;;
817;SDS011;391;51.052;6.954;2023-06-01T06:51:07;20.37;;;17.00;;
817;SDS011;391;51.052;6.954;2023-06-01T06:53:11;22.50;;;17.13;;
817;SDS011;391;51.052;6.954;2023-06-01T06:55:14;23.67;;;17.70;;
817;SDS011;391;51.052;6.954;2023-06-01T06:57:18;21.97;;;17.70;;
817;SDS011;391;51.052;6.954;2023-06-01T06:59:21;23.93;;;19.60;;
817;SDS011;391;51.052;6.954;2023-06-01T07:01:26;24.23;;;19.10;;
817;SDS011;391;51.052;6.954;2023-06-01T07:03:30;26.60;;;20.40;;
817;SDS011;391;51.052;6.954;2023-06-01T07:05:33;25.50;;;20.90;;
817;SDS011;391;51.052;6.954;2023-06-01T07:07:37;20.60;;;18.40;;
817;SDS011;391;51.052;6.954;2023-06-01T07:09:41;26.37;;;19.03;;
817;SDS011;391;51.052;6.954;2023-06-01T07:11:45;27.47;;;19.40;;
817;SDS011;391;51.052;6.954;2023-06-01T07:13:49;28.10;;;21.50;;
817;SDS011;391;51.052;6.954;2023-06-01T07:15:53;26.93;;;18.70;;
817;SDS011;391;51.052;6.954;2023-06-01T07:17:58;25.77;;;18.90;;
817;SDS011;391;51.052;6.954;2023-06-01T07:20:02;25.57;;;18.70;;
817;SDS011;391;51.052;6.954;2023-06-01T07:22:08;24.73;;;19.67;;
817;SDS011;391;51.052;6.954;2023-06-01T07:24:11;27.37;;;18.63;;
817;SDS011;391;51.052;6.954;2023-06-01T07:26:15;22.53;;;19.00;;
817;SDS011;391;51.052;6.954;2023-06-01T07:28:18;23.90;;;17.70;;
817;SDS011;391;51.052;6.954;2023-06-01T07:30:22;22.07;;;17.90;;
817;SDS011;391;51.052;6.954;2023-06-01T07:32:25;24.30;;;19.17;;
817;SDS011;391;51.052;6.954;2023-06-01T07:34:31;24.57;;;17.80;;
817;SDS011;391;51.052;6.954;2023-06-01T07:36:35;26.10;;;19.30;;
817;SDS011;391;51.052;6.954;2023-06-01T07:38:40;24.23;;;18.20;;
817;SDS011;391;51.052;6.954;2023-06-01T07:40:43;23.50;;;17.90;;
817;SDS011;391;51.052;6.954;2023-06-01T07:42:47;23.20;;;17.77;;
817;SDS011;391;51.052;6.954;2023-06-01T07:44:50;27.27;;;18.10;;
817;SDS011;391;51.052;6.954;2023-06-01T07:46:54;24.40;;;17.77;;
817;SDS011;391;51.052;6.954;2023-06-01T07:48:58;22.90;;;19.00;;
817;SDS011;391;51.052;6.954;2023-06-01T07:51:03;22.83;;;17.70;;
817;SDS011;391;51.052;6.954;2023-06-01T07:53:06;24.10;;;17.67;;
817;SDS011;391;51.052;6.954;2023-06-01T07:55:10;26.27;;;18.90;;
817;SDS011;391;51.052;6.954;2023-06-01T07:57:14;23.60;;;17.83;;
817;SDS011;391;51.052;6.954;2023-06-01T07:59:18;22.40;;;18.17;;
817;SDS011;391;51.052;6.954;2023-06-01T08:01:23;23.97;;;16.87;;
817;SDS011;391;51.052;6.954;2023-06-01T08:03:26;23.60;;;16.60;;
817;SDS011;391;51.052;6.954;2023-06-01T08:05:30;23.80;;;16.87;;
817;SDS011;391;51.052;6.954;2023-06-01T08:07:35;21.73;;;18.67;;
817;SDS011;391;51.052;6.954;2023-06-01T08:09:39;22.70;;;17.60;;
817;SDS011;391;51.052;6.954;2023-06-01T08:11:44;23.53;;;17.43;;
817;SDS011;391;51.052;6.954;2023-06-01T08:13:48;25.40;;;17.27;;
817;SDS011;391;51.052;6.954;2023-06-01T08:15:51;23.50;;;18.50;;
817;SDS011;391;51.052;6.954;2023-06-01T08:17:56;22.13;;;17.23;;
817;SDS011;391;51.052;6.954;2023-06-01T08:19:59;21.70;;;17.27;;
817;SDS011;391;51.052;6.954;2023-06-01T08:22:09;23.23;;;18.00;;
817;SDS011;391;51.052;6.954;2023-06-01T08:24:15;21.53;;;16.37;;
817;SDS011;391;51.052;6.954;2023-06-01T08:26:20;20.03;;;16.97;;
817;SDS011;391;51.052;6.954;2023-06-01T08:28:23;21.77;;;18.93;;
817;SDS011;391;51.052;6.954;2023-06-01T08:30:27;20.83;;;17.10;;
817;SDS011;391;51.052;6.954;2023-06-01T08:32:30;21.40;;;16.80;;
817;SDS011;391;51.052;6.954;2023-06-01T08:34:34;20.77;;;16.77;;
817;SDS011;391;51.052;6.954;2023-06-01T08:36:37;21.90;;;17.43;;
817;SDS011;391;51.052;6.954;2023-06-01T08:38:41;24.50;;;18.00;;
817;SDS011;391;51.052;6.954;2023-06-01T08:40:46;19.70;;;16.67;;
817;SDS011;391;51.052;6.954;2023-06-01T08:42:53;20.97;;;16.83;;
817;SDS011;391;51.052;6.954;2023-06-01T08:45:03;22.77;;;17.80;;
817;SDS011;391;51.052;6.954;2023-06-01T08:47:08;21.63;;;17.17;;
817;SDS011;391;51.052;6.954;2023-06-01T08:49:13;21.13;;;16.93;;
817;SDS011;391;51.052;6.954;2023-06-01T08:51:18;16.83;;;14.87;;
817;SDS011;391;51.052;6.954;2023-06-01T08:53:22;19.07;;;15.00;;
817;SDS011;391;51.052;6.954;2023-06-01T08:55:25;16.50;;;14.63;;
817;SDS011;391;51.052;6.954;2023-06-01T08:57:31;21.03;;;15.20;;
817;SDS011;391;51.052;6.954;2023-06-01T08:59:34;19.40;;;15.33;;
817;SDS011;391;51.052;6.954;2023-06-01T09:01:39;23.10;;;16.73;;
817;SDS011;391;51.052;6.954;2023-06-01T09:03:44;19.03;;;15.53;;
817;SDS011;391;51.052;6.954;2023-06-01T09:05:47;19.07;;;14.47;;
817;SDS011;391;51.052;6.954;2023-06-01T09:07:51;16.10;;;13.10;;
817;SDS011;391;51.052;6.954;2023-06-01T09:09:56;17.87;;;13.70;;
817;SDS011;391;51.052;6.954;2023-06-01T09:12:16;16.53;;;13.63;;
817;SDS011;391;51.052;6.954;2023-06-01T09:14:26;16.80;;;14.10;;
817;SDS011;391;51.052;6.954;2023-06-01T09:16:35;16.80;;;12.93;;
817;SDS011;391;51.052;6.954;2023-06-01T09:18:50;16.20;;;14.00;;
817;SDS011;391;51.052;6.954;2023-06-01T09:20:54;17.70;;;13.97;;
817;SDS011;391;51.052;6.954;2023-06-01T09:23:14;14.33;;;11.00;;
817;SDS011;391;51.052;6.954;2023-06-01T09:25:26;15.17;;;13.30;;
817;SDS011;391;51.052;6.954;2023-06-01T09:27:31;17.60;;;13.23;;
817;SDS011;391;51.052;6.954;2023-06-01T09:29:52;15.00;;;12.60;;
817;SDS011;391;51.052;6.954;2023-06-01T09:31:56;12.93;;;11.33;;
817;SDS011;391;51.052;6.954;2023-06-01T09:33:59;16.10;;;12.60;;
817;SDS011;391;51.052;6.954;2023-06-01T09:36:03;17.43;;;11.30;;
817;SDS011;391;51.052;6.954;2023-06-01T09:38:07;15.03;;;12.37;;
817;SDS011;391;51.052;6.954;2023-06-01T09:40:18;13.20;;;11.80;;
817;SDS011;391;51.052;6.954;2023-06-01T09:42:30;15.40;;;13.00;;
817;SDS011;391;51.052;6.954;2023-06-01T09:44:35;14.67;;;12.10;;
817;SDS011;391;51.052;6.954;2023-06-01T09:46:47;12.73;;;11.03;;
817;SDS011;391;51.052;6.954;2023-06-01T09:49:03;11.73;;;10.53;;
817;SDS011;391;51.052;6.954;2023-06-01T09:51:19;12.83;;;11.40;;
817;SDS011;391;51.052;6.954;2023-06-01T09:53:24;13.57;;;10.93;;
817;SDS011;391;51.052;6.954;2023-06-01T09:55:28;12.77;;;11.33;;
817;SDS011;391;51.052;6.954;2023-06-01T09:57:32;13.03;;;10.03;;
817;SDS011;391;51.052;6.954;2023-06-01T09:59:39;12.30;;;11.00;;
817;SDS011;391;51.052;6.954;2023-06-01T10:01:45;13.87;;;11.10;;
817;SDS011;391;51.052;6.954;2023-06-01T10:03:56;13.13;;;10.80;;
817;SDS011;391;51.052;6.954;2023-06-01T10:06:04;13.73;;;11.13;;
817;SDS011;391;51.052;6.954;2023-06-01T10:08:08;14.17;;;10.50;;
817;SDS011;391;51.052;6.954;2023-06-01T10:10:13;10.57;;;9.47;;
817;SDS011;391;51.052;6.954;2023-06-01T10:12:17;9.47;;;8.57;;
817;SDS011;391;51.052;6.954;2023-06-01T10:14:21;10.77;;;9.63;;
817;SDS011;391;51.052;6.954;2023-06-01T10:16:26;11.33;;;9.70;;
817;SDS011;391;51.052;6.954;2023-06-01T10:18:31;10.60;;;9.60;;
817;SDS011;391;51.052;6.954;2023-06-01T10:20:36;9.57;;;8.60;;
817;SDS011;391;51.052;6.954;2023-06-01T10:22:41;10.53;;;9.43;;
817;SDS011;391;51.052;6.954;2023-06-01T10:24:46;10.20;;;9.20;;
817;SDS011;391;51.052;6.954;2023-06-01T10:26:52;8.67;;;7.83;;
817;SDS011;391;51.052;6.954;2023-06-01T10:29:03;9.50;;;8.57;;
817;SDS011;391;51.052;6.954;2023-06-01T10:35:59;9.13;;;8.23;;
817;SDS011;391;51.052;6.954;2023-06-01T10:38:23;7.97;;;7.20;;
817;SDS011;391;51.052;6.954;2023-06-01T10:40:30;8.67;;;7.70;;
817;SDS011;391;51.052;6.954;2023-06-01T10:44:45;11.50;;;8.47;;
817;SDS011;391;51.052;6.954;2023-06-01T10:46:49;10.60;;;8.13;;
817;SDS011;391;51.052;6.954;2023-06-01T10:48:55;8.90;;;8.07;;
817;SDS011;391;51.052;6.954;2023-06-01T10:51:18;8.93;;;8.03;;
817;SDS011;391;51.052;6.954;2023-06-01T10:53:25;10.17;;;8.03;;
817;SDS011;391;51.052;6.954;2023-06-01T10:55:30;8.87;;;7.87;;
817;SDS011;391;51.052;6.954;2023-06-01T10:57:34;8.30;;;7.50;;
817;SDS011;391;51.052;6.954;2023-06-01T10:59:38;9.83;;;8.70;;
817;SDS011;391;51.052;6.954;2023-06-01T11:01:42;10.37;;;8.30;;
817;SDS011;391;51.052;6.954;2023-06-01T11:03:47;10.70;;;7.93;;
817;SDS011;391;51.052;6.954;2023-06-01T11:05:54;10.60;;;8.43;;
817;SDS011;391;51.052;6.954;2023-06-01T11:07:58;8.63;;;6.87;;
817;SDS011;391;51.052;6.954;2023-06-01T11:10:01;8.90;;;8.00;;
817;SDS011;391;51.052;6.954;2023-06-01T11:12:05;10.73;;;8.63;;
817;SDS011;391;51.052;6.954;2023-06-01T11:14:11;8.43;;;7.30;;
817;SDS011;391;51.052;6.954;2023-06-01T11:16:31;14.23;;;8.10;;
817;SDS011;391;51.052;6.954;2023-06-01T11:18:44;8.17;;;7.33;;
817;SDS011;391;51.052;6.954;2023-06-01T11:20:52;9.83;;;8.83;;
817;SDS011;391;51.052;6.954;2023-06-01T11:22:57;11.80;;;9.60;;
817;SDS011;391;51.052;6.954;2023-06-01T11:25:02;9.63;;;8.70;;
817;SDS011;391;51.052;6.954;2023-06-01T11:27:10;12.73;;;10.00;;
817;SDS011;391;51.052;6.954;2023-06-01T11:29:15;11.07;;;9.90;;
817;SDS011;391;51.052;6.954;2023-06-01T11:31:19;11.70;;;10.37;;
817;SDS011;391;51.052;6.954;2023-06-01T11:33:26;9.83;;;8.83;;
817;SDS011;391;51.052;6.954;2023-06-01T11:35:35;12.73;;;8.57;;
817;SDS011;391;51.052;6.954;2023-06-01T11:37:38;9.73;;;8.40;;
817;SDS011;391;51.052;6.954;2023-06-01T11:39:43;8.60;;;7.67;;
817;SDS011;391;51.052;6.954;2023-06-01T11:41:49;10.80;;;9.00;;
817;SDS011;391;51.052;6.954;2023-06-01T11:43:54;9.17;;;8.03;;
817;SDS011;391;51.052;6.954;2023-06-01T11:45:59;9.00;;;8.20;;
817;SDS011;391;51.052;6.954;2023-06-01T11:48:18;9.73;;;8.50;;
817;SDS011;391;51.052;6.954;2023-06-01T11:50:22;11.10;;;9.97;;
817;SDS011;391;51.052;6.954;2023-06-01T11:52:29;11.50;;;10.37;;
817;SDS011;391;51.052;6.954;2023-06-01T11:54:32;12.10;;;10.87;;
817;SDS011;391;51.052;6.954;2023-06-01T11:56:37;15.30;;;10.77;;
817;SDS011;391;51.052;6.954;2023-06-01T11:58:41;13.10;;;11.73;;
817;SDS011;391;51.052;6.954;2023-06-01T12:00:45;14.60;;;13.13;;
817;SDS011;391;51.052;6.954;2023-06-01T12:02:48;13.63;;;12.43;;
817;SDS011;391;51.052;6.954;2023-06-01T12:04:55;15.27;;;13.67;;
817;SDS011;391;51.052;6.954;2023-06-01T12:07:04;15.87;;;14.20;;
817;SDS011;391;51.052;6.954;2023-06-01T12:09:08;15.70;;;14.10;;
817;SDS011;391;51.052;6.954;2023-06-01T12:11:13;14.40;;;13.00;;
817;SDS011;391;51.052;6.954;2023-06-01T12:13:19;17.13;;;14.83;;
817;SDS011;391;51.052;6.954;2023-06-01T12:15:23;18.03;;;16.20;;
817;SDS011;391;51.052;6.954;2023-06-01T12:17:45;15.07;;;13.33;;
817;SDS011;391;51.052;6.954;2023-06-01T12:19:59;16.23;;;14.70;;
817;SDS011;391;51.052;6.954;2023-06-01T12:22:03;16.13;;;14.43;;
817;SDS011;391;51.052;6.954;2023-06-01T12:24:08;14.20;;;12.80;;
817;SDS011;391;51.052;6.954;2023-06-01T12:26:11;15.00;;;13.50;;
817;SDS011;391;51.052;6.954;2023-06-01T12:28:14;14.50;;;13.10;;
817;SDS011;391;51.052;6.954;2023-06-01T12:30:21;16.03;;;14.07;;
817;SDS011;391;51.052;6.954;2023-06-01T12:32:25;13.90;;;12.60;;
817;SDS011;391;51.052;6.954;2023-06-01T12:34:41;12.00;;;10.80;;
817;SDS011;391;51.052;6.954;2023-06-01T12:36:49;13.20;;;11.90;;
817;SDS011;391;51.052;6.954;2023-06-01T12:38:53;16.20;;;14.53;;
817;SDS011;391;51.052;6.954;2023-06-01T12:41:07;15.63;;;14.13;;
817;SDS011;391;51.052;6.954;2023-06-01T12:43:17;13.67;;;11.53;;
817;SDS011;391;51.052;6.954;2023-06-01T12:45:24;16.83;;;14.03;;
817;SDS011;391;51.052;6.954;2023-06-01T12:47:34;16.03;;;12.70;;
817;SDS011;391;51.052;6.954;2023-06-01T12:49:38;16.50;;;12.33;;
817;SDS011;391;51.052;6.954;2023-06-01T12:51:42;15.00;;;13.20;;
817;SDS011;391;51.052;6.954;2023-06-01T12:53:45;13.57;;;11.90;;
817;SDS011;391;51.052;6.954;2023-06-01T12:55:49;13.60;;;11.93;;
817;SDS011;391;51.052;6.954;2023-06-01T12:57:53;16.17;;;14.13;;
817;SDS011;391;51.052;6.954;2023-06-01T12:59:57;13.57;;;11.67;;
817;SDS011;391;51.052;6.954;2023-06-01T13:02:03;12.23;;;11.03;;
817;SDS011;391;51.052;6.954;2023-06-01T13:04:07;11.90;;;9.47;;
817;SDS011;391;51.052;6.954;2023-06-01T13:06:11;10.80;;;9.23;;
817;SDS011;391;51.052;6.954;2023-06-01T13:08:15;9.83;;;8.93;;
817;SDS011;391;51.052;6.954;2023-06-01T13:10:18;9.40;;;7.50;;
817;SDS011;391;51.052;6.954;2023-06-01T13:12:22;7.53;;;6.60;;
817;SDS011;391;51.052;6.954;2023-06-01T13:14:25;15.93;;;10.07;;
817;SDS011;391;51.052;6.954;2023-06-01T13:16:29;9.63;;;8.50;;
817;SDS011;391;51.052;6.954;2023-06-01T13:18:34;9.23;;;7.17;;
817;SDS011;391;51.052;6.954;2023-06-01T13:20:38;9.50;;;7.17;;
817;SDS011;391;51.052;6.954;2023-06-01T13:22:42;8.53;;;7.00;;